sensor_id;sensor_type;location;lat;lon;timestamp;P1;durP1;ratioP1;P2;durP2;ratioP2
18732;SDS011;9495;51.210;2.934;2023-05-18T00:00:41;14.60;;;3.50;;
18732;SDS011;9495;51.210;2.934;2023-05-18T00:03:11;19.80;;;3.70;;
18732;SDS011;9495;51.210;2.934;2023-05-18T00:05:40;16.73;;;3.63;;
18732;SDS011;9495;51.210;2.934;2023-05-18T00:08:09;22.73;;;4.00;;
18732;SDS011;9495;51.210;2.934;2023-05-18T00:10:37;13.07;;;3.50;;
18732;SDS011;9495;51.210;2.934;2023-05-18T00:13:06;15.83;;;4.00;;
18732;SDS011;9495;51.210;2.934;2023-05-18T00:15:34;18.73;;;3.40;;
18732;SDS011;9495;51.210;2.934;2023-05-18T00:18:03;13.93;;;3.40;;
18732;SDS011;9495;51.210;2.934;2023-05-18T00:20:33;12.57;;;3.27;;
18732;SDS011;9495;51.210;2.934;2023-05-18T00:23:02;13.90;;;3.93;;
18732;SDS011;9495;51.210;2.934;2023-05-18T00:25:31;20.30;;;4.53;;
18732;SDS011;9495;51.210;2.934;2023-05-18T00:28:00;23.23;;;4.37;;
18732;SDS011;9495;51.210;2.934;2023-05-18T00:30:28;12.70;;;3.27;;
18732;SDS011;9495;51.210;2.934;2023-05-18T00:32:57;16.07;;;4.43;;
18732;SDS011;9495;51.210;2.934;2023-05-18T00:35:26;20.00;;;4.23;;
18732;SDS011;9495;51.210;2.934;2023-05-18T00:37:56;15.50;;;3.93;;
18732;SDS011;9495;51.210;2.934;2023-05-18T00:40:24;15.97;;;4.07;;
18732;SDS011;9495;51.210;2.934;2023-05-18T00:42:54;17.90;;;3.57;;
18732;SDS011;9495;51.210;2.934;2023-05-18T00:45:23;14.77;;;3.87;;
18732;SDS011;9495;51.210;2.934;2023-05-18T00:47:52;17.97;;;4.10;;
18732;SDS011;9495;51.210;2.934;2023-05-18T00:50:20;21.40;;;4.33;;
18732;SDS011;9495;51.210;2.934;2023-05-18T00:52:49;22.97;;;4.07;;
18732;SDS011;9495;51.210;2.934;2023-05-18T00:55:19;16.43;;;3.90;;
18732;SDS011;9495;51.210;2.934;2023-05-18T00:57:47;17.00;;;4.33;;
18732;SDS011;9495;51.210;2.934;2023-05-18T01:00:17;21.50;;;4.17;;
18732;SDS011;9495;51.210;2.934;2023-05-18T01:02:46;18.73;;;4.13;;
18732;SDS011;9495;51.210;2.934;2023-05-18T01:05:16;22.20;;;4.77;;
18732;SDS011;9495;51.210;2.934;2023-05-18T01:07:47;16.27;;;4.20;;
18732;SDS011;9495;51.210;2.934;2023-05-18T01:10:17;24.87;;;5.73;;
18732;SDS011;9495;51.210;2.934;2023-05-18T01:12:49;15.73;;;4.87;;
18732;SDS011;9495;51.210;2.934;2023-05-18T01:15:24;21.27;;;5.60;;
18732;SDS011;9495;51.210;2.934;2023-05-18T01:18:00;18.23;;;5.40;;
18732;SDS011;9495;51.210;2.934;2023-05-18T01:20:36;18.53;;;6.00;;
18732;SDS011;9495;51.210;2.934;2023-05-18T01:23:13;16.77;;;5.90;;
18732;SDS011;9495;51.210;2.934;2023-05-18T01:26:09;21.97;;;6.47;;
18732;SDS011;9495;51.210;2.934;2023-05-18T01:28:41;24.10;;;6.97;;
18732;SDS011;9495;51.210;2.934;2023-05-18T01:31:12;19.60;;;6.60;;
18732;SDS011;9495;51.210;2.934;2023-05-18T01:33:41;26.67;;;5.93;;
18732;SDS011;9495;51.210;2.934;2023-05-18T01:36:10;20.07;;;5.77;;
18732;SDS011;9495;51.210;2.934;2023-05-18T01:38:38;18.47;;;5.50;;
18732;SDS011;9495;51.210;2.934;2023-05-18T01:41:17;18.73;;;6.67;;
18732;SDS011;9495;51.210;2.934;2023-05-18T01:43:49;20.40;;;6.13;;
18732;SDS011;9495;51.210;2.934;2023-05-18T01:46:24;17.17;;;5.90;;
18732;SDS011;9495;51.210;2.934;2023-05-18T01:48:59;20.90;;;6.27;;
18732;SDS011;9495;51.210;2.934;2023-05-18T01:51:35;20.30;;;6.00;;
18732;SDS011;9495;51.210;2.934;2023-05-18T01:54:08;19.23;;;6.20;;
18732;SDS011;9495;51.210;2.934;2023-05-18T01:56:39;20.30;;;5.73;;
18732;SDS011;9495;51.210;2.934;2023-05-18T01:59:09;21.60;;;6.27;;
18732;SDS011;9495;51.210;2.934;2023-05-18T02:01:38;19.30;;;5.90;;
18732;SDS011;9495;51.210;2.934;2023-05-18T02:04:07;16.23;;;5.60;;
18732;SDS011;9495;51.210;2.934;2023-05-18T02:06:36;16.40;;;5.47;;
18732;SDS011;9495;51.210;2.934;2023-05-18T02:09:05;18.77;;;6.23;;
18732;SDS011;9495;51.210;2.934;2023-05-18T02:11:34;17.03;;;5.77;;
18732;SDS011;9495;51.210;2.934;2023-05-18T02:14:04;15.20;;;6.00;;
18732;SDS011;9495;51.210;2.934;2023-05-18T02:16:32;20.13;;;5.70;;
18732;SDS011;9495;51.210;2.934;2023-05-18T02:19:01;19.13;;;5.17;;
18732;SDS011;9495;51.210;2.934;2023-05-18T02:21:30;17.00;;;5.43;;
18732;SDS011;9495;51.210;2.934;2023-05-18T02:24:00;17.53;;;5.70;;
18732;SDS011;9495;51.210;2.934;2023-05-18T02:26:29;16.50;;;5.60;;
18732;SDS011;9495;51.210;2.934;2023-05-18T02:28:57;16.97;;;5.67;;
18732;SDS011;9495;51.210;2.934;2023-05-18T02:31:27;14.80;;;5.60;;
18732;SDS011;9495;51.210;2.934;2023-05-18T02:33:56;18.47;;;5.50;;
18732;SDS011;9495;51.210;2.934;2023-05-18T02:36:25;17.47;;;6.53;;
18732;SDS011;9495;51.210;2.934;2023-05-18T02:38:53;16.87;;;5.63;;
18732;SDS011;9495;51.210;2.934;2023-05-18T02:41:22;17.67;;;5.77;;
18732;SDS011;9495;51.210;2.934;2023-05-18T02:43:51;16.80;;;5.97;;
18732;SDS011;9495;51.210;2.934;2023-05-18T02:46:20;19.30;;;6.10;;
18732;SDS011;9495;51.210;2.934;2023-05-18T02:48:50;20.50;;;5.70;;
18732;SDS011;9495;51.210;2.934;2023-05-18T02:51:18;23.70;;;6.67;;
18732;SDS011;9495;51.210;2.934;2023-05-18T02:53:47;21.70;;;6.40;;
18732;SDS011;9495;51.210;2.934;2023-05-18T02:56:15;16.93;;;5.80;;
18732;SDS011;9495;51.210;2.934;2023-05-18T02:58:44;27.37;;;7.63;;
18732;SDS011;9495;51.210;2.934;2023-05-18T03:01:13;22.43;;;6.90;;
18732;SDS011;9495;51.210;2.934;2023-05-18T03:03:42;17.97;;;6.57;;
18732;SDS011;9495;51.210;2.934;2023-05-18T03:06:12;15.70;;;6.80;;
18732;SDS011;9495;51.210;2.934;2023-05-18T03:08:41;15.63;;;6.43;;
18732;SDS011;9495;51.210;2.934;2023-05-18T03:11:10;21.00;;;7.23;;
18732;SDS011;9495;51.210;2.934;2023-05-18T03:13:38;18.23;;;6.73;;
18732;SDS011;9495;51.210;2.934;2023-05-18T03:16:07;21.17;;;7.53;;
18732;SDS011;9495;51.210;2.934;2023-05-18T03:18:35;17.87;;;7.10;;
18732;SDS011;9495;51.210;2.934;2023-05-18T03:21:04;20.20;;;7.67;;
18732;SDS011;9495;51.210;2.934;2023-05-18T03:23:34;17.80;;;7.30;;
18732;SDS011;9495;51.210;2.934;2023-05-18T03:26:03;18.40;;;6.47;;
18732;SDS011;9495;51.210;2.934;2023-05-18T03:28:36;14.10;;;6.97;;
18732;SDS011;9495;51.210;2.934;2023-05-18T03:31:04;13.63;;;6.00;;
18732;SDS011;9495;51.210;2.934;2023-05-18T03:33:33;20.20;;;6.30;;
18732;SDS011;9495;51.210;2.934;2023-05-18T03:36:02;19.93;;;6.60;;
18732;SDS011;9495;51.210;2.934;2023-05-18T03:38:31;19.23;;;6.60;;
18732;SDS011;9495;51.210;2.934;2023-05-18T03:41:01;18.10;;;6.30;;
18732;SDS011;9495;51.210;2.934;2023-05-18T03:43:30;17.70;;;6.40;;
18732;SDS011;9495;51.210;2.934;2023-05-18T03:45:58;14.97;;;6.27;;
18732;SDS011;9495;51.210;2.934;2023-05-18T03:48:27;22.13;;;6.40;;
18732;SDS011;9495;51.210;2.934;2023-05-18T03:50:55;16.77;;;6.80;;
18732;SDS011;9495;51.210;2.934;2023-05-18T03:53:24;17.10;;;6.40;;
18732;SDS011;9495;51.210;2.934;2023-05-18T03:55:52;18.23;;;6.90;;
18732;SDS011;9495;51.210;2.934;2023-05-18T03:58:23;15.63;;;6.20;;
18732;SDS011;9495;51.210;2.934;2023-05-18T04:00:52;12.60;;;6.47;;
18732;SDS011;9495;51.210;2.934;2023-05-18T04:03:21;17.33;;;7.80;;
18732;SDS011;9495;51.210;2.934;2023-05-18T04:05:52;17.60;;;7.50;;
18732;SDS011;9495;51.210;2.934;2023-05-18T04:08:21;15.17;;;7.13;;
18732;SDS011;9495;51.210;2.934;2023-05-18T04:10:50;17.50;;;7.13;;
18732;SDS011;9495;51.210;2.934;2023-05-18T04:13:19;19.17;;;7.53;;
18732;SDS011;9495;51.210;2.934;2023-05-18T04:15:49;17.80;;;7.57;;
18732;SDS011;9495;51.210;2.934;2023-05-18T04:18:18;18.70;;;8.00;;
18732;SDS011;9495;51.210;2.934;2023-05-18T04:20:47;17.53;;;7.37;;
18732;SDS011;9495;51.210;2.934;2023-05-18T04:23:16;18.43;;;7.63;;
18732;SDS011;9495;51.210;2.934;2023-05-18T04:25:45;17.27;;;7.70;;
18732;SDS011;9495;51.210;2.934;2023-05-18T04:28:14;17.93;;;7.73;;
18732;SDS011;9495;51.210;2.934;2023-05-18T04:30:43;19.43;;;7.30;;
18732;SDS011;9495;51.210;2.934;2023-05-18T04:33:14;13.63;;;6.83;;
18732;SDS011;9495;51.210;2.934;2023-05-18T04:35:43;12.20;;;6.90;;
18732;SDS011;9495;51.210;2.934;2023-05-18T04:38:11;18.83;;;7.37;;
18732;SDS011;9495;51.210;2.934;2023-05-18T04:40:40;16.30;;;7.17;;
18732;SDS011;9495;51.210;2.934;2023-05-18T04:43:09;15.07;;;7.33;;
18732;SDS011;9495;51.210;2.934;2023-05-18T04:45:37;13.93;;;6.87;;
18732;SDS011;9495;51.210;2.934;2023-05-18T04:48:06;12.60;;;6.20;;
18732;SDS011;9495;51.210;2.934;2023-05-18T04:50:35;18.23;;;6.97;;
18732;SDS011;9495;51.210;2.934;2023-05-18T04:53:04;17.30;;;6.80;;
18732;SDS011;9495;51.210;2.934;2023-05-18T04:55:34;16.63;;;6.47;;
18732;SDS011;9495;51.210;2.934;2023-05-18T04:58:02;18.97;;;6.80;;
18732;SDS011;9495;51.210;2.934;2023-05-18T05:00:31;16.50;;;6.90;;
18732;SDS011;9495;51.210;2.934;2023-05-18T05:03:00;16.03;;;6.80;;
18732;SDS011;9495;51.210;2.934;2023-05-18T05:05:28;14.77;;;6.27;;
18732;SDS011;9495;51.210;2.934;2023-05-18T05:07:59;15.03;;;5.87;;
18732;SDS011;9495;51.210;2.934;2023-05-18T05:10:30;17.93;;;6.20;;
18732;SDS011;9495;51.210;2.934;2023-05-18T05:12:58;14.03;;;5.90;;
18732;SDS011;9495;51.210;2.934;2023-05-18T05:15:27;11.17;;;5.90;;
18732;SDS011;9495;51.210;2.934;2023-05-18T05:17:57;17.60;;;6.00;;
18732;SDS011;9495;51.210;2.934;2023-05-18T05:20:25;15.73;;;5.87;;
18732;SDS011;9495;51.210;2.934;2023-05-18T05:22:54;17.23;;;5.90;;
18732;SDS011;9495;51.210;2.934;2023-05-18T05:25:24;12.40;;;5.77;;
18732;SDS011;9495;51.210;2.934;2023-05-18T05:27:52;13.50;;;5.30;;
18732;SDS011;9495;51.210;2.934;2023-05-18T05:30:21;12.63;;;5.50;;
18732;SDS011;9495;51.210;2.934;2023-05-18T05:32:49;16.20;;;5.37;;
18732;SDS011;9495;51.210;2.934;2023-05-18T05:35:18;13.27;;;5.40;;
18732;SDS011;9495;51.210;2.934;2023-05-18T05:37:46;13.00;;;4.73;;
18732;SDS011;9495;51.210;2.934;2023-05-18T05:40:15;13.27;;;4.70;;
18732;SDS011;9495;51.210;2.934;2023-05-18T05:42:45;14.93;;;4.73;;
18732;SDS011;9495;51.210;2.934;2023-05-18T05:45:13;14.40;;;4.20;;
18732;SDS011;9495;51.210;2.934;2023-05-18T05:47:42;13.77;;;5.10;;
18732;SDS011;9495;51.210;2.934;2023-05-18T05:50:10;13.70;;;4.47;;
18732;SDS011;9495;51.210;2.934;2023-05-18T05:52:39;14.27;;;4.40;;
18732;SDS011;9495;51.210;2.934;2023-05-18T05:55:08;12.37;;;3.70;;
18732;SDS011;9495;51.210;2.934;2023-05-18T05:57:36;9.80;;;3.90;;
18732;SDS011;9495;51.210;2.934;2023-05-18T06:00:10;12.37;;;4.23;;
18732;SDS011;9495;51.210;2.934;2023-05-18T06:02:39;16.60;;;4.03;;
18732;SDS011;9495;51.210;2.934;2023-05-18T06:05:08;16.00;;;4.70;;
18732;SDS011;9495;51.210;2.934;2023-05-18T06:07:36;18.30;;;4.40;;
18732;SDS011;9495;51.210;2.934;2023-05-18T06:10:05;8.70;;;3.57;;
18732;SDS011;9495;51.210;2.934;2023-05-18T06:12:34;16.67;;;3.80;;
18732;SDS011;9495;51.210;2.934;2023-05-18T06:15:03;12.77;;;4.20;;
18732;SDS011;9495;51.210;2.934;2023-05-18T06:17:33;13.47;;;3.93;;
18732;SDS011;9495;51.210;2.934;2023-05-18T06:20:02;12.97;;;3.90;;
18732;SDS011;9495;51.210;2.934;2023-05-18T06:22:32;11.97;;;4.00;;
18732;SDS011;9495;51.210;2.934;2023-05-18T06:25:01;13.07;;;3.80;;
18732;SDS011;9495;51.210;2.934;2023-05-18T06:27:30;13.53;;;3.90;;
18732;SDS011;9495;51.210;2.934;2023-05-18T06:29:59;17.03;;;4.30;;
18732;SDS011;9495;51.210;2.934;2023-05-18T06:32:28;14.53;;;4.30;;
18732;SDS011;9495;51.210;2.934;2023-05-18T06:34:58;12.83;;;3.83;;
18732;SDS011;9495;51.210;2.934;2023-05-18T06:37:26;8.77;;;3.80;;
18732;SDS011;9495;51.210;2.934;2023-05-18T06:39:55;12.83;;;4.37;;
18732;SDS011;9495;51.210;2.934;2023-05-18T06:42:24;12.30;;;4.60;;
18732;SDS011;9495;51.210;2.934;2023-05-18T06:44:52;12.50;;;4.47;;
18732;SDS011;9495;51.210;2.934;2023-05-18T06:47:21;11.60;;;4.17;;
18732;SDS011;9495;51.210;2.934;2023-05-18T06:49:49;13.03;;;4.20;;
18732;SDS011;9495;51.210;2.934;2023-05-18T06:52:19;9.43;;;3.57;;
18732;SDS011;9495;51.210;2.934;2023-05-18T06:54:50;7.43;;;3.50;;
18732;SDS011;9495;51.210;2.934;2023-05-18T06:57:18;12.23;;;3.57;;
18732;SDS011;9495;51.210;2.934;2023-05-18T06:59:47;7.67;;;3.40;;
18732;SDS011;9495;51.210;2.934;2023-05-18T07:02:19;10.97;;;3.70;;
18732;SDS011;9495;51.210;2.934;2023-05-18T07:04:47;12.33;;;3.57;;
18732;SDS011;9495;51.210;2.934;2023-05-18T07:07:16;10.67;;;3.27;;
18732;SDS011;9495;51.210;2.934;2023-05-18T07:09:46;12.13;;;3.43;;
18732;SDS011;9495;51.210;2.934;2023-05-18T07:12:15;11.20;;;3.13;;
18732;SDS011;9495;51.210;2.934;2023-05-18T07:14:43;10.20;;;3.20;;
18732;SDS011;9495;51.210;2.934;2023-05-18T07:17:12;7.33;;;3.07;;
18732;SDS011;9495;51.210;2.934;2023-05-18T07:19:40;17.00;;;3.33;;
18732;SDS011;9495;51.210;2.934;2023-05-18T07:22:09;7.90;;;3.00;;
18732;SDS011;9495;51.210;2.934;2023-05-18T07:24:37;8.67;;;3.47;;
18732;SDS011;9495;51.210;2.934;2023-05-18T07:27:07;11.17;;;3.00;;
18732;SDS011;9495;51.210;2.934;2023-05-18T07:29:35;15.43;;;3.37;;
18732;SDS011;9495;51.210;2.934;2023-05-18T07:32:04;8.40;;;3.00;;
18732;SDS011;9495;51.210;2.934;2023-05-18T07:34:32;8.83;;;2.77;;
18732;SDS011;9495;51.210;2.934;2023-05-18T07:37:01;12.43;;;3.13;;
18732;SDS011;9495;51.210;2.934;2023-05-18T07:39:30;10.83;;;3.27;;
18732;SDS011;9495;51.210;2.934;2023-05-18T07:41:59;8.73;;;2.63;;
18732;SDS011;9495;51.210;2.934;2023-05-18T07:44:29;12.23;;;3.20;;
18732;SDS011;9495;51.210;2.934;2023-05-18T07:46:58;15.53;;;3.70;;
18732;SDS011;9495;51.210;2.934;2023-05-18T07:49:26;8.20;;;3.00;;
18732;SDS011;9495;51.210;2.934;2023-05-18T07:51:55;14.07;;;3.60;;
18732;SDS011;9495;51.210;2.934;2023-05-18T07:54:24;12.07;;;3.77;;
18732;SDS011;9495;51.210;2.934;2023-05-18T07:56:53;12.77;;;3.47;;
18732;SDS011;9495;51.210;2.934;2023-05-18T07:59:25;10.53;;;3.23;;
18732;SDS011;9495;51.210;2.934;2023-05-18T08:01:54;10.23;;;3.30;;
18732;SDS011;9495;51.210;2.934;2023-05-18T08:04:24;11.50;;;3.50;;
18732;SDS011;9495;51.210;2.934;2023-05-18T08:06:53;11.73;;;3.93;;
18732;SDS011;9495;51.210;2.934;2023-05-18T08:09:25;15.20;;;4.17;;
18732;SDS011;9495;51.210;2.934;2023-05-18T08:11:54;13.40;;;4.27;;
18732;SDS011;9495;51.210;2.934;2023-05-18T08:14:22;13.13;;;3.20;;
18732;SDS011;9495;51.210;2.934;2023-05-18T08:16:51;9.77;;;3.33;;
18732;SDS011;9495;51.210;2.934;2023-05-18T08:19:21;8.27;;;3.20;;
18732;SDS011;9495;51.210;2.934;2023-05-18T08:21:49;9.07;;;3.17;;
18732;SDS011;9495;51.210;2.934;2023-05-18T08:24:18;15.50;;;3.53;;
18732;SDS011;9495;51.210;2.934;2023-05-18T08:26:46;10.30;;;3.23;;
18732;SDS011;9495;51.210;2.934;2023-05-18T08:29:15;10.83;;;3.33;;
18732;SDS011;9495;51.210;2.934;2023-05-18T08:31:43;11.93;;;3.37;;
18732;SDS011;9495;51.210;2.934;2023-05-18T08:34:15;10.30;;;3.40;;
18732;SDS011;9495;51.210;2.934;2023-05-18T08:36:45;10.13;;;3.20;;
18732;SDS011;9495;51.210;2.934;2023-05-18T08:39:13;11.60;;;3.50;;
18732;SDS011;9495;51.210;2.934;2023-05-18T08:41:42;7.60;;;3.07;;
18732;SDS011;9495;51.210;2.934;2023-05-18T08:44:19;13.27;;;3.87;;
18732;SDS011;9495;51.210;2.934;2023-05-18T08:46:49;10.97;;;3.37;;
18732;SDS011;9495;51.210;2.934;2023-05-18T08:49:18;14.33;;;3.40;;
18732;SDS011;9495;51.210;2.934;2023-05-18T08:51:53;8.57;;;2.90;;
18732;SDS011;9495;51.210;2.934;2023-05-18T08:54:23;11.43;;;2.90;;
18732;SDS011;9495;51.210;2.934;2023-05-18T08:56:51;11.77;;;3.30;;
18732;SDS011;9495;51.210;2.934;2023-05-18T08:59:22;9.70;;;3.53;;
18732;SDS011;9495;51.210;2.934;2023-05-18T09:01:52;14.00;;;3.00;;
18732;SDS011;9495;51.210;2.934;2023-05-18T09:04:20;13.73;;;2.80;;
18732;SDS011;9495;51.210;2.934;2023-05-18T09:06:52;9.88;;;3.38;;
18732;SDS011;9495;51.210;2.934;2023-05-18T09:09:21;10.20;;;3.33;;
18732;SDS011;9495;51.210;2.934;2023-05-18T09:11:52;12.18;;;3.38;;
18732;SDS011;9495;51.210;2.934;2023-05-18T09:14:24;9.97;;;3.73;;
18732;SDS011;9495;51.210;2.934;2023-05-18T09:16:52;13.17;;;3.90;;
18732;SDS011;9495;51.210;2.934;2023-05-18T09:19:21;11.63;;;3.30;;
18732;SDS011;9495;51.210;2.934;2023-05-18T09:21:51;6.97;;;3.25;;
18732;SDS011;9495;51.210;2.934;2023-05-18T09:24:20;10.83;;;3.20;;
18732;SDS011;9495;51.210;2.934;2023-05-18T09:26:50;11.67;;;3.40;;
18732;SDS011;9495;51.210;2.934;2023-05-18T09:29:19;10.40;;;3.42;;
18732;SDS011;9495;51.210;2.934;2023-05-18T09:31:49;9.23;;;2.93;;
18732;SDS011;9495;51.210;2.934;2023-05-18T09:34:19;13.82;;;4.03;;
18732;SDS011;9495;51.210;2.934;2023-05-18T09:36:50;11.27;;;3.30;;
18732;SDS011;9495;51.210;2.934;2023-05-18T09:39:22;9.60;;;3.47;;
18732;SDS011;9495;51.210;2.934;2023-05-18T09:41:53;15.82;;;2.92;;
18732;SDS011;9495;51.210;2.934;2023-05-18T09:44:28;9.73;;;3.30;;
18732;SDS011;9495;51.210;2.934;2023-05-18T09:46:58;11.82;;;3.53;;
18732;SDS011;9495;51.210;2.934;2023-05-18T09:49:27;8.57;;;3.00;;
18732;SDS011;9495;51.210;2.934;2023-05-18T09:51:58;8.02;;;3.13;;
18732;SDS011;9495;51.210;2.934;2023-05-18T09:54:27;12.68;;;4.05;;
18732;SDS011;9495;51.210;2.934;2023-05-18T09:56:55;16.23;;;3.85;;
18732;SDS011;9495;51.210;2.934;2023-05-18T09:59:36;11.95;;;3.80;;
18732;SDS011;9495;51.210;2.934;2023-05-18T10:02:05;10.73;;;3.83;;
18732;SDS011;9495;51.210;2.934;2023-05-18T10:04:34;8.40;;;3.10;;
18732;SDS011;9495;51.210;2.934;2023-05-18T10:07:09;12.40;;;3.75;;
18732;SDS011;9495;51.210;2.934;2023-05-18T10:09:38;12.32;;;3.15;;
18732;SDS011;9495;51.210;2.934;2023-05-18T10:12:11;9.40;;;3.28;;
18732;SDS011;9495;51.210;2.934;2023-05-18T10:14:40;8.88;;;2.63;;
18732;SDS011;9495;51.210;2.934;2023-05-18T10:17:10;11.73;;;3.80;;
18732;SDS011;9495;51.210;2.934;2023-05-18T10:19:42;13.50;;;3.38;;
18732;SDS011;9495;51.210;2.934;2023-05-18T10:22:13;13.13;;;4.43;;
18732;SDS011;9495;51.210;2.934;2023-05-18T10:24:44;12.32;;;3.42;;
18732;SDS011;9495;51.210;2.934;2023-05-18T10:27:17;10.40;;;3.67;;
18732;SDS011;9495;51.210;2.934;2023-05-18T10:29:51;10.25;;;3.70;;
18732;SDS011;9495;51.210;2.934;2023-05-18T10:32:21;9.63;;;4.20;;
18732;SDS011;9495;51.210;2.934;2023-05-18T10:34:51;10.30;;;3.97;;
18732;SDS011;9495;51.210;2.934;2023-05-18T10:37:23;11.18;;;3.92;;
18732;SDS011;9495;51.210;2.934;2023-05-18T10:39:56;6.07;;;2.90;;
18732;SDS011;9495;51.210;2.934;2023-05-18T10:42:26;9.02;;;3.47;;
18732;SDS011;9495;51.210;2.934;2023-05-18T10:44:56;11.63;;;3.80;;
18732;SDS011;9495;51.210;2.934;2023-05-18T10:47:27;14.03;;;3.50;;
18732;SDS011;9495;51.210;2.934;2023-05-18T10:49:57;12.37;;;3.43;;
18732;SDS011;9495;51.210;2.934;2023-05-18T10:52:28;11.60;;;3.67;;
18732;SDS011;9495;51.210;2.934;2023-05-18T10:55:00;12.67;;;3.70;;
18732;SDS011;9495;51.210;2.934;2023-05-18T10:57:31;11.20;;;3.87;;
18732;SDS011;9495;51.210;2.934;2023-05-18T11:00:04;8.30;;;3.15;;
18732;SDS011;9495;51.210;2.934;2023-05-18T11:02:34;14.60;;;3.30;;
18732;SDS011;9495;51.210;2.934;2023-05-18T11:05:08;11.63;;;3.60;;
18732;SDS011;9495;51.210;2.934;2023-05-18T11:07:38;15.27;;;3.97;;
18732;SDS011;9495;51.210;2.934;2023-05-18T11:10:07;13.60;;;3.90;;
18732;SDS011;9495;51.210;2.934;2023-05-18T11:12:37;10.97;;;4.07;;
18732;SDS011;9495;51.210;2.934;2023-05-18T11:15:08;12.33;;;3.73;;
18732;SDS011;9495;51.210;2.934;2023-05-18T11:17:37;9.13;;;3.50;;
18732;SDS011;9495;51.210;2.934;2023-05-18T11:20:12;10.90;;;4.10;;
18732;SDS011;9495;51.210;2.934;2023-05-18T11:22:47;9.03;;;3.70;;
18732;SDS011;9495;51.210;2.934;2023-05-18T11:28:10;10.27;;;4.00;;
18732;SDS011;9495;51.210;2.934;2023-05-18T11:30:46;12.03;;;4.33;;
18732;SDS011;9495;51.210;2.934;2023-05-18T11:33:22;10.03;;;3.87;;
18732;SDS011;9495;51.210;2.934;2023-05-18T11:35:53;14.70;;;4.50;;
18732;SDS011;9495;51.210;2.934;2023-05-18T11:38:25;13.87;;;4.40;;
18732;SDS011;9495;51.210;2.934;2023-05-18T11:41:28;7.77;;;3.90;;
18732;SDS011;9495;51.210;2.934;2023-05-18T11:44:04;10.53;;;4.80;;
18732;SDS011;9495;51.210;2.934;2023-05-18T11:46:51;14.20;;;4.30;;
18732;SDS011;9495;51.210;2.934;2023-05-18T11:49:21;15.23;;;4.57;;
18732;SDS011;9495;51.210;2.934;2023-05-18T11:51:53;14.10;;;4.90;;
18732;SDS011;9495;51.210;2.934;2023-05-18T11:54:33;8.10;;;4.10;;
18732;SDS011;9495;51.210;2.934;2023-05-18T11:57:06;14.57;;;4.85;;
18732;SDS011;9495;51.210;2.934;2023-05-18T11:59:36;14.90;;;5.87;;
18732;SDS011;9495;51.210;2.934;2023-05-18T12:02:06;10.90;;;5.40;;
18732;SDS011;9495;51.210;2.934;2023-05-18T12:04:43;8.80;;;4.80;;
18732;SDS011;9495;51.210;2.934;2023-05-18T12:07:13;13.43;;;5.50;;
18732;SDS011;9495;51.210;2.934;2023-05-18T12:09:43;13.80;;;5.30;;
18732;SDS011;9495;51.210;2.934;2023-05-18T12:12:13;14.43;;;5.60;;
18732;SDS011;9495;51.210;2.934;2023-05-18T12:14:48;12.27;;;5.20;;
18732;SDS011;9495;51.210;2.934;2023-05-18T12:17:22;16.43;;;6.20;;
18732;SDS011;9495;51.210;2.934;2023-05-18T12:19:51;12.07;;;5.23;;
18732;SDS011;9495;51.210;2.934;2023-05-18T12:22:19;15.07;;;5.57;;
18732;SDS011;9495;51.210;2.934;2023-05-18T12:24:50;16.07;;;5.33;;
18732;SDS011;9495;51.210;2.934;2023-05-18T12:27:19;16.20;;;5.20;;
18732;SDS011;9495;51.210;2.934;2023-05-18T12:29:51;13.73;;;5.83;;
18732;SDS011;9495;51.210;2.934;2023-05-18T12:32:21;11.25;;;5.03;;
18732;SDS011;9495;51.210;2.934;2023-05-18T12:34:49;12.10;;;5.83;;
18732;SDS011;9495;51.210;2.934;2023-05-18T12:37:17;15.90;;;6.10;;
18732;SDS011;9495;51.210;2.934;2023-05-18T12:40:05;12.93;;;4.87;;
18732;SDS011;9495;51.210;2.934;2023-05-18T12:42:34;12.57;;;5.68;;
18732;SDS011;9495;51.210;2.934;2023-05-18T12:45:04;11.97;;;5.43;;
18732;SDS011;9495;51.210;2.934;2023-05-18T12:47:39;14.20;;;5.67;;
18732;SDS011;9495;51.210;2.934;2023-05-18T12:50:09;13.67;;;5.70;;
18732;SDS011;9495;51.210;2.934;2023-05-18T12:52:38;9.53;;;5.17;;
18732;SDS011;9495;51.210;2.934;2023-05-18T12:55:09;15.93;;;5.93;;
18732;SDS011;9495;51.210;2.934;2023-05-18T12:57:56;14.63;;;5.73;;
18732;SDS011;9495;51.210;2.934;2023-05-18T13:00:26;14.67;;;5.60;;
18732;SDS011;9495;51.210;2.934;2023-05-18T13:03:03;15.00;;;5.80;;
18732;SDS011;9495;51.210;2.934;2023-05-18T13:05:35;15.00;;;5.87;;
18732;SDS011;9495;51.210;2.934;2023-05-18T13:08:04;15.57;;;6.18;;
18732;SDS011;9495;51.210;2.934;2023-05-18T13:10:33;13.87;;;5.77;;
18732;SDS011;9495;51.210;2.934;2023-05-18T13:13:02;14.03;;;5.93;;
18732;SDS011;9495;51.210;2.934;2023-05-18T13:15:32;13.83;;;5.90;;
18732;SDS011;9495;51.210;2.934;2023-05-18T13:18:02;14.00;;;5.90;;
18732;SDS011;9495;51.210;2.934;2023-05-18T13:20:33;13.80;;;6.13;;
18732;SDS011;9495;51.210;2.934;2023-05-18T13:23:04;13.67;;;5.20;;
18732;SDS011;9495;51.210;2.934;2023-05-18T13:25:35;14.10;;;5.83;;
18732;SDS011;9495;51.210;2.934;2023-05-18T13:28:04;11.90;;;5.30;;
18732;SDS011;9495;51.210;2.934;2023-05-18T13:30:33;22.40;;;6.77;;
18732;SDS011;9495;51.210;2.934;2023-05-18T13:33:01;17.73;;;6.70;;
18732;SDS011;9495;51.210;2.934;2023-05-18T13:35:30;16.10;;;6.63;;
18732;SDS011;9495;51.210;2.934;2023-05-18T13:37:59;13.82;;;5.97;;
18732;SDS011;9495;51.210;2.934;2023-05-18T13:40:28;9.75;;;5.47;;
18732;SDS011;9495;51.210;2.934;2023-05-18T13:42:58;13.23;;;5.47;;
18732;SDS011;9495;51.210;2.934;2023-05-18T13:45:27;11.97;;;6.03;;
18732;SDS011;9495;51.210;2.934;2023-05-18T13:47:56;19.20;;;6.90;;
18732;SDS011;9495;51.210;2.934;2023-05-18T13:50:25;14.83;;;5.40;;
18732;SDS011;9495;51.210;2.934;2023-05-18T13:52:54;15.50;;;5.87;;
18732;SDS011;9495;51.210;2.934;2023-05-18T13:55:22;18.33;;;6.10;;
18732;SDS011;9495;51.210;2.934;2023-05-18T13:57:51;16.03;;;6.30;;
18732;SDS011;9495;51.210;2.934;2023-05-18T14:00:20;13.40;;;5.20;;
18732;SDS011;9495;51.210;2.934;2023-05-18T14:02:49;15.27;;;5.88;;
18732;SDS011;9495;51.210;2.934;2023-05-18T14:05:18;13.88;;;5.57;;
18732;SDS011;9495;51.210;2.934;2023-05-18T14:07:47;13.33;;;5.17;;
18732;SDS011;9495;51.210;2.934;2023-05-18T14:10:17;14.97;;;5.37;;
18732;SDS011;9495;51.210;2.934;2023-05-18T14:12:46;13.77;;;5.63;;
18732;SDS011;9495;51.210;2.934;2023-05-18T14:15:15;18.90;;;5.93;;
18732;SDS011;9495;51.210;2.934;2023-05-18T14:17:45;17.70;;;5.00;;
18732;SDS011;9495;51.210;2.934;2023-05-18T14:20:14;16.57;;;6.10;;
18732;SDS011;9495;51.210;2.934;2023-05-18T14:22:42;19.20;;;5.50;;
18732;SDS011;9495;51.210;2.934;2023-05-18T14:25:10;18.10;;;5.30;;
18732;SDS011;9495;51.210;2.934;2023-05-18T14:27:39;18.87;;;5.67;;
18732;SDS011;9495;51.210;2.934;2023-05-18T14:30:07;11.00;;;5.63;;
18732;SDS011;9495;51.210;2.934;2023-05-18T14:32:36;16.40;;;5.40;;
18732;SDS011;9495;51.210;2.934;2023-05-18T14:35:06;12.23;;;5.80;;
18732;SDS011;9495;51.210;2.934;2023-05-18T14:37:35;14.63;;;5.83;;
18732;SDS011;9495;51.210;2.934;2023-05-18T14:40:04;17.53;;;6.50;;
18732;SDS011;9495;51.210;2.934;2023-05-18T14:42:33;16.50;;;5.50;;
18732;SDS011;9495;51.210;2.934;2023-05-18T14:45:03;15.38;;;6.13;;
18732;SDS011;9495;51.210;2.934;2023-05-18T14:47:31;13.07;;;5.87;;
18732;SDS011;9495;51.210;2.934;2023-05-18T14:50:00;11.97;;;5.20;;
18732;SDS011;9495;51.210;2.934;2023-05-18T14:52:29;14.87;;;5.80;;
18732;SDS011;9495;51.210;2.934;2023-05-18T14:54:58;16.60;;;5.17;;
18732;SDS011;9495;51.210;2.934;2023-05-18T14:57:26;13.53;;;5.23;;
18732;SDS011;9495;51.210;2.934;2023-05-18T14:59:55;15.23;;;5.03;;
18732;SDS011;9495;51.210;2.934;2023-05-18T15:02:24;13.13;;;5.17;;
18732;SDS011;9495;51.210;2.934;2023-05-18T15:04:52;9.60;;;5.10;;
18732;SDS011;9495;51.210;2.934;2023-05-18T15:07:21;10.83;;;5.30;;
18732;SDS011;9495;51.210;2.934;2023-05-18T15:09:51;13.67;;;5.33;;